Latest Weather Observations for Lake Grace

IDW60801

Issued at 5:35 pm WST Sunday 23 November 2014 (issued every 30 minutes, with the page automatically refreshed every 10 minutes)

About weather observations | Map of weather stations | Latest weather observations for WA | Other Formats
Station Details ID: 010911 Name: LAKE GRACE Lat: -33.10 Lon: 118.46 Height: 286.0 m
Data from the previous 72 hours. | See also: Recent months at Lake Grace
Date/Time
WST
Temp
°C
App
Temp
°C
Dew
Point
Rel
Hum
%
Delta-T
°C
Wind Press
QNH
hPa
Press
MSL
hPa
Rain
since 9 am
mm
Dir
 
Spd
km/h
Gust
km/h
Spd
kts
Gust
kts
23/05:30pm 21.3 16.5 2.6 29 8.9 SSW 17 26 9 14 1016.2 1015.4 0.0
23/05:00pm 21.7 16.8 3.9 31 8.7 SSW 19 30 10 16 1016.0 1015.2 0.0
23/04:30pm 22.2 17.5 3.3 29 9.2 SW 17 24 9 13 1015.7 1014.8 0.0
23/04:00pm 22.3 17.7 3.9 30 9.1 SSW 17 30 9 16 1015.6 1014.7 0.0
23/03:30pm 21.5 16.5 3.7 31 8.7 SSW 19 32 10 17 1015.4 1014.5 0.0
23/03:00pm 21.6 16.5 4.2 32 8.6 SW 20 30 11 16 1015.4 1014.5 0.0
23/02:30pm 22.2 17.4 4.7 32 8.7 SW 19 33 10 18 1015.5 1014.6 0.0
23/02:00pm 20.9 16.1 5.7 37 7.7 SSW 20 26 11 14 1015.7 1014.8 0.0
23/01:30pm 20.7 15.9 5.5 37 7.6 SW 20 32 11 17 1015.7 1014.8 0.0
23/01:00pm 21.2 16.7 6.3 38 7.6 W 19 26 10 14 1015.7 1014.8 0.0
23/12:30pm 20.4 15.8 6.7 41 7.0 SSW 20 33 11 18 1015.8 1015.0 0.0
23/12:00pm 19.9 14.9 6.3 41 6.9 SSW 22 33 12 18 1015.9 1015.1 0.0
23/11:30am 19.7 16.4 6.4 42 6.7 WSW 13 20 7 11 1016.0 1015.2 0.0
23/11:00am 18.8 14.5 6.9 46 6.1 SSW 19 30 10 16 1016.1 1015.3 0.0
23/10:30am 18.1 14.0 7.8 51 5.3 SW 19 26 10 14 1016.4 1015.6 0.0
23/10:00am 17.7 13.9 7.4 51 5.3 SW 17 30 9 16 1016.3 1015.5 0.0
23/09:30am 17.3 13.2 7.9 54 4.8 SW 19 30 10 16 1016.2 1015.4 0.0
23/09:00am 16.6 12.2 7.5 55 4.6 SW 20 28 11 15 1016.2 1015.4 0.0
23/08:30am 15.8 11.4 7.6 58 4.2 SW 20 35 11 19 1016.1 1015.3 0.0
23/08:00am 16.0 11.4 8.0 59 4.1 SW 22 32 12 17 1016.1 1015.3 0.0
23/07:30am 15.6 11.2 7.6 59 4.0 SW 20 33 11 18 1015.9 1015.1 0.0
23/07:00am 14.5 10.3 7.5 63 3.5 WSW 19 28 10 15 1015.6 1014.7 0.0
23/06:30am 13.9 10.9 7.9 67 3.0 WNW 13 17 7 9 1015.4 1014.5 0.0
23/06:00am 12.9 10.6 7.6 70 2.6 W 9 13 5 7 1015.1 1014.2 0.0
23/05:30am 11.9 10.1 7.0 72 2.4 W 6 9 3 5 1014.7 1013.8 0.0
23/05:00am 11.5 9.6 6.6 72 2.4 WNW 6 11 3 6 1014.4 1013.5 0.0
23/04:30am 11.8 9.9 6.9 72 2.4 W 6 9 3 5 1014.1 1013.2 0.0
23/04:00am 11.7 10.9 6.6 71 2.5 CALM 0 0 0 0 1013.9 1013.0 0.0
23/03:30am 12.3 10.2 6.8 69 2.7 W 7 11 4 6 1013.6 1012.7 0.0
23/03:00am 12.3 10.3 7.0 70 2.6 W 7 11 4 6 1013.4 1012.5 0.0
23/02:30am 12.6 10.2 7.1 69 2.7 WSW 9 15 5 8 1013.3 1012.4 0.0
23/02:00am 13.0 10.3 7.2 68 2.9 WSW 11 19 6 10 1013.4 1012.5 0.0
23/01:30am 13.3 10.5 7.1 66 3.1 SW 11 17 6 9 1013.6 1012.7 0.0
23/01:00am 13.9 10.5 7.7 66 3.1 SW 15 22 8 12 1013.6 1012.7 0.0
23/12:30am 14.3 10.6 7.8 65 3.3 SSW 17 24 9 13 1013.8 1012.9 0.0
23/12:00am 14.9 11.2 7.9 63 3.5 SW 17 32 9 17 1013.7 1012.8 0.0
 
Date/Time
WST
Temp
°C
App
Temp
°C
Dew
Point
Rel
Hum
%
Delta-T
°C
Wind Press
QNH
hPa
Press
MSL
hPa
Rain
since 9 am
mm
Dir
 
Spd
km/h
Gust
km/h
Spd
kts
Gust
kts
22/11:30pm 15.6 12.2 9.1 65 3.4 WSW 17 24 9 13 1013.6 1012.7 0.0
22/11:00pm 16.2 12.2 9.2 63 3.7 WSW 20 33 11 18 1013.7 1012.8 0.0
22/10:30pm 16.9 11.8 9.3 61 4.0 WSW 26 39 14 21 1013.6 1012.7 0.0
22/10:00pm 17.6 12.5 9.2 58 4.4 WSW 26 39 14 21 1013.5 1012.6 0.0
22/09:30pm 18.4 13.6 8.7 53 5.1 WSW 24 39 13 21 1013.3 1012.4 0.0
22/09:00pm 19.3 15.0 8.0 48 5.9 WSW 20 33 11 18 1012.8 1012.0 0.0
22/08:30pm 19.8 16.3 7.2 44 6.5 WSW 15 22 8 12 1012.5 1011.6 0.0
22/08:00pm 20.5 17.1 6.1 39 7.3 W 13 19 7 10 1012.2 1011.3 0.0
22/07:30pm 21.2 18.2 5.9 37 7.8 W 11 20 6 11 1011.9 1011.0 0.0
22/07:00pm 21.7 18.2 5.6 35 8.2 W 13 17 7 9 1011.7 1010.8 0.0
22/06:30pm 22.3 18.0 5.3 33 8.6 W 17 24 9 13 1011.6 1010.7 0.0
22/06:00pm 22.9 18.1 4.9 31 9.1 W 19 33 10 18 1011.3 1010.4 0.0
22/05:30pm 23.9 18.9 4.8 29 9.7 WNW 20 28 11 15 1010.9 1010.0 0.0
22/05:00pm 23.8 18.5 5.2 30 9.5 W 22 37 12 20 1010.8 1009.9 0.0
22/04:30pm 24.0 19.2 5.4 30 9.5 W 20 33 11 18 1010.8 1009.9 0.0
22/04:00pm 23.9 19.2 5.3 30 9.5 W 19 30 10 16 1010.7 1009.8 0.0
22/03:30pm 23.7 18.9 5.6 31 9.3 WNW 20 33 11 18 1010.8 1009.9 0.0
22/03:00pm 23.7 19.0 5.1 30 9.5 NNW 19 22 10 12 1010.9 1010.0 0.0
22/02:30pm 23.8 19.0 5.7 31 9.3 WNW 20 30 11 16 1011.2 1010.3 0.0
22/02:00pm 22.6 18.6 5.1 32 8.8 W 15 26 8 14 1011.5 1010.6 0.0
22/01:30pm 23.1 18.4 6.0 33 8.8 SW 20 32 11 17 1011.6 1010.7 0.0
22/01:00pm 22.9 18.3 5.8 33 8.8 W 19 28 10 15 1011.9 1011.0 0.0
22/12:30pm 21.8 18.4 5.7 35 8.2 WSW 13 28 7 15 1012.1 1011.2 0.0
22/12:00pm 21.7 18.9 6.8 38 7.7 WSW 11 22 6 12 1012.3 1011.4 0.0
22/11:30am 21.0 17.7 6.2 38 7.5 W 13 17 7 9 1012.6 1011.7 0.0
22/11:00am 20.4 18.0 7.1 42 6.9 SW 9 15 5 8 1012.9 1012.1 0.0
22/10:30am 19.2 15.7 7.0 45 6.2 W 15 26 8 14 1013.4 1012.5 0.0
22/10:00am 18.6 15.0 6.8 46 6.0 WSW 15 24 8 13 1013.5 1012.6 0.0
22/09:30am 17.8 14.6 6.7 48 5.6 SW 13 22 7 12 1013.6 1012.7 0.0
22/09:00am 17.0 13.8 6.8 51 5.1 SW 13 22 7 12 1013.7 1012.8 0.0
22/08:30am 16.6 13.4 6.7 52 4.9 WSW 13 22 7 12 1013.8 1012.9 0.0
22/08:00am 16.0 12.9 7.2 56 4.4 WSW 13 20 7 11 1013.8 1012.9 0.0
22/07:30am 15.6 12.3 7.9 60 3.9 WSW 15 26 8 14 1013.7 1012.8 0.0
22/07:00am 15.3 12.5 8.5 64 3.5 WSW 13 17 7 9 1013.4 1012.5 0.0
22/06:30am 14.7 12.9 9.5 71 2.7 WSW 9 15 5 8 1013.0 1012.2 0.0
22/06:00am 14.1 12.4 9.7 75 2.3 WSW 9 19 5 10 1012.8 1012.0 0.0
22/05:30am 13.4 12.1 9.8 79 1.9 SW 7 13 4 7 1012.5 1011.6 0.0
22/05:00am 13.1 11.0 9.7 80 1.8 WSW 11 15 6 8 1012.3 1011.4 0.0
22/04:30am 13.2 11.5 9.8 80 1.8 WSW 9 11 5 6 1011.9 1011.0 0.0
22/04:00am 13.5 12.1 9.6 77 2.0 SW 7 11 4 6 1011.6 1010.7 0.0
22/03:30am 14.1 11.9 9.5 74 2.4 WSW 11 15 6 8 1011.4 1010.5 0.0
22/03:00am 14.4 12.6 9.6 73 2.5 SW 9 15 5 8 1011.3 1010.4 0.0
22/02:30am 14.0 12.5 9.0 72 2.6 SW 7 11 4 6 1011.1 1010.2 0.0
22/02:00am 14.6 12.4 9.2 70 2.8 SW 11 17 6 9 1011.1 1010.2 0.0
22/01:30am 15.0 12.4 9.4 69 2.9 SW 13 17 7 9 1011.2 1010.3 0.0
22/01:00am 15.0 12.3 9.1 68 3.1 SW 13 19 7 10 1011.3 1010.4 0.0
22/12:30am 15.1 12.7 8.8 66 3.3 WSW 11 22 6 12 1011.5 1010.6 0.0
22/12:00am 15.3 13.2 8.3 63 3.6 WSW 9 13 5 7 1011.5 1010.6 0.0
 
Date/Time
WST
Temp
°C
App
Temp
°C
Dew
Point
Rel
Hum
%
Delta-T
°C
Wind Press
QNH
hPa
Press
MSL
hPa
Rain
since 9 am
mm
Dir
 
Spd
km/h
Gust
km/h
Spd
kts
Gust
kts
21/11:30pm 15.7 13.2 8.0 60 3.9 SW 11 17 6 9 1011.5 1010.6 0.0
21/11:00pm 16.2 13.1 7.4 56 4.5 WSW 13 17 7 9 1011.5 1010.6 0.0
21/10:30pm 16.9 13.3 6.7 51 5.1 W 15 22 8 12 1011.4 1010.5 0.0
21/10:00pm 17.5 13.9 6.7 49 5.4 W 15 22 8 12 1011.4 1010.5 0.0
21/09:30pm 17.9 14.3 6.7 48 5.6 W 15 22 8 12 1011.3 1010.4 0.0
21/09:00pm 18.6 14.5 6.4 45 6.2 W 17 26 9 14 1011.2 1010.3 0.0
21/08:30pm 19.4 15.0 6.5 43 6.5 W 19 24 10 13 1011.0 1010.1 0.0
21/08:00pm 20.2 16.2 6.5 41 7.0 W 17 28 9 15 1010.6 1009.7 0.0
21/07:30pm 21.0 17.0 6.5 39 7.4 W 17 24 9 13 1010.2 1009.3 0.0
21/07:00pm 21.7 17.2 6.0 36 8.0 W 19 33 10 18 1009.9 1009.0 0.0
21/06:30pm 22.4 17.9 6.2 35 8.3 WSW 19 28 10 15 1009.8 1008.9 0.0
21/06:00pm 23.6 18.4 5.5 31 9.3 W 22 35 12 19 1009.3 1008.4 0.0
21/05:30pm 24.2 18.8 4.6 28 9.9 W 22 33 12 18 1008.8 1007.9 0.0
21/05:00pm 25.1 18.6 4.8 27 10.4 WNW 28 39 15 21 1008.4 1007.5 0.0
21/04:30pm 25.6 19.5 4.7 26 10.7 W 26 39 14 21 1008.3 1007.4 0.0
21/04:00pm 26.1 19.8 4.0 24 11.2 W 26 37 14 20 1008.3 1007.4 0.0
21/03:30pm 25.1 18.6 4.8 27 10.4 W 28 39 15 21 1008.2 1007.3 0.0
21/03:00pm 25.9 19.7 4.4 25 11.0 W 26 39 14 21 1008.1 1007.2 0.0
21/02:30pm 26.8 22.1 6.2 27 10.9 W 20 39 11 21 1008.3 1007.4 0.0
21/02:00pm 26.2 20.9 5.2 26 10.9 W 22 32 12 17 1008.6 1007.7 0.0
21/01:30pm 25.1 19.3 6.3 30 9.8 WNW 26 41 14 22 1008.8 1007.9 0.0
21/01:00pm 24.5 18.3 6.3 31 9.5 W 28 46 15 25 1008.9 1008.0 0.0
21/12:59pm 24.6 18.5 6.8 32 9.4 W 28 46 15 25 1009.0 1008.1 0.0
21/12:30pm 24.9 18.8 6.6 31 9.6 W 28 43 15 23 1009.2 1008.3 0.0
21/12:00pm 24.2 18.5 6.9 33 9.1 W 26 39 14 21 1009.6 1008.6 0.0
21/11:38am 23.8 17.7 6.6 33 9.0 WNW 28 46 15 25 1009.8 1008.9 0.0
21/11:30am 23.6 19.0 6.4 33 8.9 WNW 20 26 11 14 1009.9 1009.0 0.0
21/11:00am 22.5 16.7 6.3 35 8.4 W 26 41 14 22 1010.2 1009.3 0.0
21/10:30am 22.8 17.5 7.0 36 8.3 W 24 37 13 20 1010.5 1009.6 0.0
21/10:00am 21.8 17.0 9.0 44 6.9 W 24 35 13 19 1010.7 1009.8 0.0
21/09:30am 20.5 17.0 10.3 52 5.6 WSW 19 28 10 15 1010.7 1009.8 0.0
21/09:00am 20.4 16.1 9.3 49 6.0 W 22 35 12 19 1010.7 1009.8 0.0
21/08:30am 19.9 15.9 10.6 55 5.1 W 22 35 12 19 1010.7 1009.8 0.0
21/08:00am 19.6 15.5 11.6 60 4.5 W 24 39 13 21 1010.7 1009.8 0.0
21/07:30am 18.0 14.1 12.2 69 3.3 W 24 33 13 18 1010.7 1009.8 0.0
21/07:00am 17.0 13.2 12.5 75 2.5 W 24 35 13 19 1010.7 1009.8 0.0
21/06:30am 16.3 13.5 12.5 78 2.1 W 19 26 10 14 1010.5 1009.6 0.0
21/06:00am 15.1 13.6 11.9 81 1.8 NW 11 17 6 9 1010.3 1009.4 0.0
21/05:30am 14.0 12.3 11.3 84 1.5 NNW 11 15 6 8 1009.9 1009.0 0.0
21/05:00am 13.5 12.4 10.7 83 1.5 NNW 7 11 4 6 1009.8 1008.9 0.0
21/04:30am 14.2 12.4 11.0 81 1.7 NNW 11 15 6 8 1009.4 1008.5 0.0
21/04:00am 14.5 12.7 10.7 78 2.0 NW 11 15 6 8 1009.4 1008.5 0.0
21/03:30am 14.6 13.0 10.2 75 2.3 NW 9 13 5 7 1009.4 1008.5 0.0
21/03:00am 15.2 12.9 10.6 74 2.5 NW 13 17 7 9 1009.4 1008.5 0.0
21/02:30am 15.3 13.0 10.5 73 2.6 NW 13 20 7 11 1009.4 1008.5 0.0
21/02:00am 15.3 13.0 10.3 72 2.7 NW 13 19 7 10 1009.6 1008.6 0.0
21/01:30am 15.6 12.9 10.2 70 2.9 NW 15 24 8 13 1009.8 1008.9 0.0
21/01:00am 15.7 12.4 9.6 67 3.2 WNW 17 20 9 11 1010.3 1009.4 0.0
21/12:30am 16.1 12.8 9.5 65 3.5 WNW 17 24 9 13 1010.5 1009.6 0.0
21/12:00am 16.5 13.1 9.2 62 3.8 WNW 17 24 9 13 1010.8 1009.9 0.0
 
Date/Time
WST
Temp
°C
App
Temp
°C
Dew
Point
Rel
Hum
%
Delta-T
°C
Wind Press
QNH
hPa
Press
MSL
hPa
Rain
since 9 am
mm
Dir
 
Spd
km/h
Gust
km/h
Spd
kts
Gust
kts
20/11:30pm 16.5 13.4 8.7 60 4.1 WNW 15 20 8 11 1011.1 1010.2 0.0
20/11:00pm 16.8 14.0 8.5 58 4.3 WNW 13 19 7 10 1011.4 1010.5 0.0
20/10:30pm 16.9 14.0 8.3 57 4.4 W 13 19 7 10 1011.5 1010.6 0.0
20/10:00pm 17.5 14.3 8.4 55 4.7 W 15 24 8 13 1011.6 1010.7 0.0
20/09:30pm 18.0 14.1 8.6 54 4.9 W 19 30 10 16 1011.8 1010.9 0.0
20/09:00pm 18.6 14.0 8.3 51 5.4 W 22 32 12 17 1011.5 1010.6 0.0
20/08:30pm 19.4 15.4 8.4 49 5.8 W 19 30 10 16 1011.3 1010.4 0.0
20/08:00pm 20.1 15.9 8.1 46 6.3 W 20 37 11 20 1010.9 1010.0 0.0
20/07:30pm 20.9 16.6 7.2 41 7.1 W 19 30 10 16 1010.6 1009.7 0.0
20/07:00pm 21.6 17.4 7.4 40 7.4 W 19 30 10 16 1010.3 1009.4 0.0
20/06:30pm 22.3 16.7 7.3 38 7.9 W 26 35 14 19 1010.0 1009.1 0.0
20/06:00pm 22.8 17.9 8.5 40 7.7 W 24 39 13 21 1009.8 1008.9 0.0

Other Formats:

Comma delimited format used in spreadsheet applications
http://www.bom.gov.au/fwo/IDW60801/IDW60801.95637.axf

JavaScript Object Notation format (JSON) in row-major order
http://www.bom.gov.au/fwo/IDW60801/IDW60801.95637.json